Terminal Aerodrome Forecast
Issued by NWS

Home | Current Version | Previous Version | Graphics & Text | Print | Product List | Glossary On
Versions: 1 2 3 4 5 6 7 8 9 10 11 12 13 14 15
000
FTUS42 KMHX 271141
TAFPGV
TAF
KPGV 271141Z 2712/2812 04010KT P6SM VCSH SCT015 BKN025 OVC050
     FM271600 05009KT P6SM BKN050
     FM280900 VRB03KT 5SM BR SCT010
      AMD LTD TO CLD VIS AND WIND=

USA.gov is the U.S. government's official web portal to all federal, state and local government web resources and services.